Time;durP1;ratioP1;P1;durP2;ratioP2;P2;SDS_P1;SDS_P2;PMS_P1;PMS_P2;Temp;Humidity;BMP_temperature;BMP_pressure;BME280_temperature;BME280_humidity;BME280_pressure;Samples;Min_cycle;Max_cycle;Signal;HPM_P1;HPM_P2
2024/02/19 00:00:51;;;;;;;4.22;3.80;;;8.90;99.90;;;;;;2059691;28;22976;-74
2024/02/19 00:01:51;;;;;;;5.15;3.75;;;8.90;99.90;;;;;;2058736;28;20026;-74
2024/02/19 00:02:52;;;;;;;3.65;3.22;;;8.90;99.90;;;;;;2059589;28;20034;-74
2024/02/19 00:03:52;;;;;;;4.85;3.28;;;8.90;99.90;;;;;;2060046;28;20022;-74
2024/02/19 00:04:53;;;;;;;4.07;3.67;;;8.90;99.90;;;;;;2059888;28;20037;-74
2024/02/19 00:05:55;;;;;;;3.30;3.00;;;9.00;99.90;;;;;;2059271;28;20128;-74
2024/02/19 00:06:55;;;;;;;3.67;3.10;;;8.90;99.90;;;;;;2057501;28;20017;-74
2024/02/19 00:07:57;;;;;;;3.63;2.90;;;9.00;99.90;;;;;;2055863;28;20031;-74
2024/02/19 00:08:57;;;;;;;3.20;2.70;;;9.00;99.90;;;;;;2059904;28;20034;-73
2024/02/19 00:09:58;;;;;;;3.58;2.63;;;9.00;99.90;;;;;;2056359;28;20049;-74
2024/02/19 00:11:00;;;;;;;3.25;2.60;;;9.00;99.90;;;;;;2056651;28;20065;-73
2024/02/19 00:12:01;;;;;;;4.18;2.67;;;9.10;99.90;;;;;;2057314;28;20035;-73
2024/02/19 00:13:02;;;;;;;3.10;2.70;;;9.10;99.90;;;;;;2060361;28;20065;-73
2024/02/19 00:14:02;;;;;;;3.55;2.70;;;9.10;99.90;;;;;;2061162;28;20018;-72
2024/02/19 00:15:05;;;;;;;3.33;2.90;;;9.10;99.90;;;;;;2053582;28;20089;-73
2024/02/19 00:16:06;;;;;;;3.58;2.60;;;9.10;99.90;;;;;;2058030;28;20041;-73
2024/02/19 00:17:07;;;;;;;2.97;2.70;;;9.10;99.90;;;;;;2058742;28;20109;-72
2024/02/19 00:18:08;;;;;;;3.33;2.58;;;9.10;99.90;;;;;;2059707;28;20079;-73
2024/02/19 00:19:09;;;;;;;2.83;2.30;;;9.10;99.90;;;;;;2060334;28;20824;-73
2024/02/19 00:20:10;;;;;;;3.20;2.45;;;9.20;99.90;;;;;;2059679;28;20100;-73
2024/02/19 00:21:11;;;;;;;2.42;2.22;;;9.20;99.90;;;;;;2058104;28;20085;-73
2024/02/19 00:22:12;;;;;;;3.25;2.65;;;9.20;99.90;;;;;;2060010;28;20018;-73
2024/02/19 00:23:12;;;;;;;2.65;2.30;;;9.30;99.90;;;;;;2059228;28;20038;-73
2024/02/19 00:24:13;;;;;;;2.53;2.33;;;9.20;99.90;;;;;;2059947;28;20121;-73
2024/02/19 00:25:13;;;;;;;3.63;2.42;;;9.30;99.90;;;;;;2059545;28;20412;-74
2024/02/19 00:26:14;;;;;;;3.33;2.20;;;9.30;99.90;;;;;;2060609;28;20037;-74
2024/02/19 00:27:15;;;;;;;3.30;2.20;;;9.30;99.90;;;;;;2059122;28;20035;-73
2024/02/19 00:28:16;;;;;;;3.92;2.30;;;9.30;99.90;;;;;;2058967;28;20133;-73
2024/02/19 00:29:16;;;;;;;3.08;2.38;;;9.40;99.90;;;;;;2059558;28;20030;-73
2024/02/19 00:30:17;;;;;;;3.05;2.30;;;9.40;99.90;;;;;;2059099;28;20337;-74
2024/02/19 00:31:18;;;;;;;3.15;2.55;;;9.40;99.90;;;;;;2056846;28;20065;-74
2024/02/19 00:32:18;;;;;;;2.95;2.25;;;9.40;99.90;;;;;;2059550;28;20109;-73
2024/02/19 00:33:19;;;;;;;2.50;2.30;;;9.40;99.90;;;;;;2058625;28;20109;-73
2024/02/19 00:34:19;;;;;;;2.88;2.40;;;9.40;99.90;;;;;;2060355;28;20093;-72
2024/02/19 00:35:21;;;;;;;2.38;2.17;;;9.40;99.90;;;;;;2061432;28;20030;-73
2024/02/19 00:36:21;;;;;;;2.40;2.20;;;9.40;99.90;;;;;;2060544;28;20484;-73
2024/02/19 00:37:23;;;;;;;2.60;2.28;;;9.40;99.90;;;;;;2058356;28;20061;-73
2024/02/19 00:38:25;;;;;;;2.33;2.13;;;9.50;99.90;;;;;;2060400;28;20101;-73
2024/02/19 00:39:25;;;;;;;3.05;2.30;;;9.50;99.90;;;;;;2059472;28;20065;-73
2024/02/19 00:40:26;;;;;;;2.58;2.20;;;9.50;99.90;;;;;;2059308;28;20061;-70
2024/02/19 00:41:27;;;;;;;3.78;2.30;;;9.50;99.90;;;;;;2057340;28;20046;-70
2024/02/19 00:42:28;;;;;;;2.45;2.22;;;9.60;99.90;;;;;;2059950;28;20023;-70
2024/02/19 00:43:28;;;;;;;3.05;2.17;;;9.60;99.90;;;;;;2060064;28;20486;-70
2024/02/19 00:44:29;;;;;;;2.33;2.13;;;9.60;99.90;;;;;;2057875;28;20038;-70
2024/02/19 00:45:29;;;;;;;2.45;2.25;;;9.60;99.90;;;;;;2059231;28;20092;-69
2024/02/19 00:46:30;;;;;;;2.65;2.40;;;9.60;99.90;;;;;;2059447;28;20105;-71
2024/02/19 00:47:30;;;;;;;2.38;2.17;;;9.60;99.90;;;;;;2059134;28;20111;-70
2024/02/19 00:48:31;;;;;;;2.30;2.10;;;9.70;99.90;;;;;;2059305;28;20018;-71
2024/02/19 00:49:31;;;;;;;2.30;2.05;;;9.70;99.90;;;;;;2059646;28;20034;-69
2024/02/19 00:50:32;;;;;;;2.88;2.05;;;9.70;99.90;;;;;;2058847;28;20026;-69
2024/02/19 00:51:36;;;;;;;2.65;2.42;;;9.70;99.90;;;;;;2057708;28;20050;-69
2024/02/19 00:52:40;;;;;;;2.15;1.95;;;9.70;99.90;;;;;;2057839;28;20467;-70
2024/02/19 00:53:40;;;;;;;2.15;1.95;;;9.70;99.90;;;;;;2058084;28;20034;-69
2024/02/19 00:54:43;;;;;;;2.38;2.03;;;9.70;99.90;;;;;;2059270;28;20121;-70
2024/02/19 00:55:44;;;;;;;4.93;2.33;;;9.70;99.90;;;;;;2056523;28;20446;-72
2024/02/19 00:56:45;;;;;;;2.33;2.00;;;9.70;99.90;;;;;;2059636;28;20034;-71
2024/02/19 00:57:45;;;;;;;3.42;2.20;;;9.70;99.90;;;;;;2059443;28;20038;-70
2024/02/19 00:58:46;;;;;;;2.00;1.90;;;9.70;99.90;;;;;;2055224;28;20144;-70
2024/02/19 00:59:47;;;;;;;2.53;2.33;;;9.70;99.90;;;;;;2056543;28;20456;-70
2024/02/19 01:00:48;;;;;;;2.20;2.00;;;9.60;99.90;;;;;;2061264;28;20502;-70
2024/02/19 01:01:48;;;;;;;2.33;2.10;;;9.60;99.90;;;;;;2060583;28;20027;-70
2024/02/19 01:02:49;;;;;;;2.47;2.28;;;9.60;99.90;;;;;;2060053;28;20050;-70
2024/02/19 01:03:50;;;;;;;3.25;2.20;;;9.60;99.90;;;;;;2057863;28;20023;-70
2024/02/19 01:04:53;;;;;;;2.60;2.40;;;9.60;99.90;;;;;;2055374;28;20401;-70
2024/02/19 01:05:53;;;;;;;2.45;2.08;;;9.60;99.90;;;;;;2057163;28;20018;-70
2024/02/19 01:06:54;;;;;;;3.33;2.20;;;9.70;99.90;;;;;;2060520;28;20034;-71
2024/02/19 01:07:54;;;;;;;3.03;2.30;;;9.70;99.90;;;;;;2059651;28;20034;-70
2024/02/19 01:08:55;;;;;;;2.60;2.17;;;9.70;99.90;;;;;;2058865;28;20065;-71
2024/02/19 01:09:56;;;;;;;2.50;1.90;;;9.70;99.90;;;;;;2060706;28;20026;-70
2024/02/19 01:10:56;;;;;;;2.22;2.03;;;9.70;99.90;;;;;;2060898;28;20489;-71
2024/02/19 01:11:57;;;;;;;2.72;2.03;;;9.70;99.90;;;;;;2060497;28;20582;-71
2024/02/19 01:12:57;;;;;;;2.65;2.08;;;9.70;99.90;;;;;;2058182;28;20046;-71
2024/02/19 01:13:58;;;;;;;2.28;1.90;;;9.70;99.90;;;;;;2055838;28;20022;-70
2024/02/19 01:14:58;;;;;;;2.20;2.00;;;9.70;99.90;;;;;;2060783;28;20156;-70
2024/02/19 01:15:59;;;;;;;2.45;2.15;;;9.70;99.90;;;;;;2059997;28;20046;-70
2024/02/19 01:16:59;;;;;;;2.70;2.20;;;9.70;99.90;;;;;;2060990;28;20023;-70
2024/02/19 01:18:01;;;;;;;2.30;2.00;;;9.70;99.90;;;;;;2054471;28;20042;-71
2024/02/19 01:19:01;;;;;;;2.45;2.08;;;9.70;99.90;;;;;;2054731;28;20022;-71
2024/02/19 01:20:04;;;;;;;2.20;2.00;;;9.70;99.90;;;;;;2058842;28;20061;-70
2024/02/19 01:21:04;;;;;;;2.30;2.10;;;9.70;99.90;;;;;;2057753;28;20202;-70
2024/02/19 01:22:05;;;;;;;2.20;2.00;;;9.70;99.90;;;;;;2052553;28;20633;-71
2024/02/19 01:23:06;;;;;;;2.55;2.30;;;9.70;99.90;;;;;;2058658;28;20088;-70
2024/02/19 01:24:06;;;;;;;2.30;2.10;;;9.70;99.90;;;;;;2060424;28;20029;-70
2024/02/19 01:25:07;;;;;;;2.42;2.10;;;9.70;99.90;;;;;;2055892;28;20033;-70
2024/02/19 01:26:08;;;;;;;2.15;1.90;;;9.70;99.90;;;;;;2060139;28;20033;-70
2024/02/19 01:27:08;;;;;;;2.83;2.00;;;9.80;99.90;;;;;;2057982;28;20130;-70
2024/02/19 01:28:09;;;;;;;2.20;2.00;;;9.80;99.90;;;;;;2059901;28;20038;-70
2024/02/19 01:29:09;;;;;;;2.63;2.00;;;9.80;99.90;;;;;;2059777;28;20030;-70
2024/02/19 01:30:10;;;;;;;1.73;1.60;;;9.80;99.90;;;;;;2060548;28;20081;-70
2024/02/19 01:31:11;;;;;;;2.28;1.90;;;9.80;99.90;;;;;;2052535;28;20050;-70
2024/02/19 01:32:12;;;;;;;2.20;1.80;;;9.80;99.90;;;;;;2058628;28;20253;-69
2024/02/19 01:33:12;;;;;;;1.90;1.80;;;9.80;99.90;;;;;;2058358;28;20046;-69
2024/02/19 01:34:14;;;;;;;1.70;1.60;;;9.80;99.90;;;;;;2059593;28;20077;-69
2024/02/19 01:35:15;;;;;;;2.15;1.95;;;9.80;99.90;;;;;;2061309;28;20045;-76
2024/02/19 01:36:15;;;;;;;1.77;1.67;;;9.80;99.90;;;;;;2063793;28;20038;-76
2024/02/19 01:37:16;;;;;;;1.85;1.67;;;9.80;99.90;;;;;;2059569;28;20436;-87
2024/02/19 01:38:17;;;;;;;1.60;1.50;;;9.80;99.90;;;;;;2061231;28;20034;-67
2024/02/19 01:39:18;;;;;;;2.08;1.70;;;9.80;99.90;;;;;;2060841;28;20038;-72
2024/02/19 01:40:18;;;;;;;2.78;1.67;;;9.80;99.90;;;;;;2061179;28;20030;-72
2024/02/19 01:41:19;;;;;;;2.33;1.75;;;9.80;99.90;;;;;;2061699;28;20116;-71
2024/02/19 01:42:19;;;;;;;1.52;1.42;;;9.80;99.90;;;;;;2062702;28;20030;-72
2024/02/19 01:43:20;;;;;;;1.67;1.58;;;9.80;99.90;;;;;;2057342;28;20703;-71
2024/02/19 01:44:21;;;;;;;1.50;1.40;;;9.90;99.90;;;;;;2059713;28;20042;-71
2024/02/19 01:45:26;;;;;;;1.70;1.60;;;9.90;99.90;;;;;;2061507;28;20077;-71
2024/02/19 01:46:27;;;;;;;1.60;1.50;;;9.90;99.90;;;;;;2064597;28;20048;-71
2024/02/19 01:47:30;;;;;;;1.80;1.50;;;9.90;99.90;;;;;;2068901;28;20033;-71
2024/02/19 01:48:31;;;;;;;1.58;1.48;;;9.90;99.90;;;;;;2058351;28;20046;-72
2024/02/19 01:49:32;;;;;;;1.48;1.38;;;10.00;99.90;;;;;;2052728;28;20031;-72
2024/02/19 01:50:34;;;;;;;2.08;1.20;;;9.90;99.90;;;;;;2044586;28;20553;-72
2024/02/19 01:51:37;;;;;;;1.55;1.38;;;9.90;99.90;;;;;;2061616;28;20050;-72
2024/02/19 01:52:39;;;;;;;1.40;1.30;;;9.90;99.90;;;;;;2062410;28;20022;-71
2024/02/19 01:53:41;;;;;;;1.40;1.30;;;9.90;99.90;;;;;;2062566;28;20452;-72
2024/02/19 01:54:41;;;;;;;1.40;1.30;;;9.90;99.90;;;;;;2060035;28;20066;-71
2024/02/19 01:55:44;;;;;;;1.50;1.40;;;9.90;99.90;;;;;;2059018;28;20022;-72
2024/02/19 01:56:45;;;;;;;1.40;1.30;;;10.00;99.90;;;;;;2056906;28;20030;-72
2024/02/19 01:57:46;;;;;;;1.50;1.40;;;10.00;99.90;;;;;;2057285;28;20576;-71
2024/02/19 01:58:48;;;;;;;1.42;1.30;;;10.00;99.90;;;;;;2056839;28;20019;-72
2024/02/19 01:59:48;;;;;;;1.25;1.15;;;10.00;99.90;;;;;;2060740;28;20598;-72
2024/02/19 02:00:50;;;;;;;1.40;1.30;;;10.00;99.90;;;;;;2061078;28;20105;-72
2024/02/19 02:01:50;;;;;;;1.50;1.40;;;10.00;99.90;;;;;;2053343;28;21430;-72
2024/02/19 02:02:51;;;;;;;1.23;1.13;;;10.00;99.90;;;;;;2045587;28;20031;-72
2024/02/19 02:03:53;;;;;;;1.88;1.20;;;10.00;99.90;;;;;;2060703;28;20034;-71
2024/02/19 02:04:53;;;;;;;1.80;1.27;;;9.90;99.90;;;;;;2061399;28;20026;-71
2024/02/19 02:05:54;;;;;;;1.40;1.30;;;10.00;99.90;;;;;;2058931;28;20027;-72
2024/02/19 02:06:55;;;;;;;1.30;1.20;;;10.00;99.90;;;;;;2060484;28;20040;-72
2024/02/19 02:07:57;;;;;;;1.70;1.30;;;9.90;99.90;;;;;;2061664;28;20030;-71
2024/02/19 02:08:58;;;;;;;1.80;1.48;;;9.90;99.90;;;;;;2061546;28;20022;-72
2024/02/19 02:10:03;;;;;;;2.20;1.42;;;9.90;99.90;;;;;;2060985;28;20053;-72
2024/02/19 02:11:05;;;;;;;1.58;1.38;;;9.90;99.90;;;;;;2052481;28;20018;-72
2024/02/19 02:12:06;;;;;;;2.40;1.20;;;9.90;99.90;;;;;;2060611;28;20084;-71
2024/02/19 02:13:08;;;;;;;2.05;1.30;;;10.00;99.90;;;;;;2061413;28;20045;-71
2024/02/19 02:14:08;;;;;;;1.98;1.35;;;9.90;99.90;;;;;;2062008;28;20058;-71
2024/02/19 02:15:09;;;;;;;3.88;1.40;;;9.90;99.90;;;;;;2060818;28;20154;-72
2024/02/19 02:16:10;;;;;;;3.58;1.40;;;9.90;99.90;;;;;;2061534;28;20033;-72
2024/02/19 02:17:10;;;;;;;1.42;1.10;;;10.00;99.90;;;;;;2061230;28;20053;-72
2024/02/19 02:18:12;;;;;;;2.40;1.33;;;9.90;99.90;;;;;;2058091;28;20436;-72
2024/02/19 02:19:15;;;;;;;1.30;1.20;;;10.00;99.90;;;;;;2055510;28;20578;-72
2024/02/19 02:20:15;;;;;;;1.58;1.10;;;9.90;99.90;;;;;;2054814;28;20046;-72
2024/02/19 02:21:16;;;;;;;2.75;1.15;;;9.90;99.90;;;;;;2060470;28;20564;-72
2024/02/19 02:22:17;;;;;;;2.95;1.10;;;9.90;99.90;;;;;;2059431;28;20393;-72
2024/02/19 02:23:19;;;;;;;1.42;1.25;;;9.90;99.90;;;;;;2057945;28;20045;-72
2024/02/19 02:24:19;;;;;;;1.38;1.20;;;9.90;99.90;;;;;;2058476;28;20473;-71
2024/02/19 02:25:21;;;;;;;1.20;1.10;;;9.90;99.90;;;;;;2059418;28;20042;-71
2024/02/19 02:26:22;;;;;;;1.90;1.40;;;9.90;99.90;;;;;;2061912;28;20064;-71
2024/02/19 02:27:22;;;;;;;2.40;1.30;;;9.90;99.90;;;;;;2059263;28;20103;-72
2024/02/19 02:28:23;;;;;;;1.45;1.20;;;9.90;99.90;;;;;;2059719;28;20084;-72
2024/02/19 02:29:24;;;;;;;1.17;1.10;;;10.00;99.90;;;;;;2059172;28;20038;-71
2024/02/19 02:30:24;;;;;;;1.42;1.33;;;10.00;99.90;;;;;;2060879;28;20034;-72
2024/02/19 02:31:25;;;;;;;1.73;1.50;;;10.00;99.90;;;;;;2054752;28;20106;-71
2024/02/19 02:32:25;;;;;;;2.00;1.20;;;10.00;99.90;;;;;;2061248;28;20034;-70
2024/02/19 02:33:26;;;;;;;1.73;1.20;;;10.00;99.90;;;;;;2062049;28;20037;-71
2024/02/19 02:34:26;;;;;;;1.63;1.50;;;10.00;99.90;;;;;;2061270;28;20038;-70
2024/02/19 02:35:28;;;;;;;1.30;1.20;;;10.00;99.90;;;;;;2061937;28;20034;-71
2024/02/19 02:36:29;;;;;;;1.67;1.27;;;10.00;99.90;;;;;;2061066;28;20031;-71
2024/02/19 02:37:30;;;;;;;1.35;1.20;;;10.00;99.90;;;;;;2056393;28;20038;-72
2024/02/19 02:38:31;;;;;;;1.50;1.33;;;9.90;99.90;;;;;;2057539;28;20035;-72
2024/02/19 02:39:32;;;;;;;2.13;1.10;;;9.90;99.90;;;;;;2060254;28;20077;-72
2024/02/19 02:40:33;;;;;;;1.35;1.25;;;9.90;99.90;;;;;;2057302;28;20477;-72
2024/02/19 02:41:34;;;;;;;2.08;1.20;;;9.90;99.90;;;;;;2055085;28;20042;-72
2024/02/19 02:42:35;;;;;;;1.40;1.20;;;9.90;99.90;;;;;;2060370;28;20044;-73
2024/02/19 02:43:35;;;;;;;1.30;1.20;;;9.90;99.90;;;;;;2059779;28;20030;-71
2024/02/19 02:44:36;;;;;;;1.75;1.40;;;9.90;99.90;;;;;;2060835;28;20034;-71
2024/02/19 02:45:36;;;;;;;1.90;1.20;;;9.90;99.90;;;;;;2061812;28;20054;-71
2024/02/19 02:46:37;;;;;;;1.40;1.30;;;9.90;99.90;;;;;;2061110;28;20602;-71
2024/02/19 02:47:37;;;;;;;2.25;1.35;;;9.90;99.90;;;;;;2060801;28;20030;-71
2024/02/19 02:48:38;;;;;;;1.73;1.10;;;9.90;99.90;;;;;;2062086;28;20030;-70
2024/02/19 02:49:38;;;;;;;1.35;1.23;;;9.90;99.90;;;;;;2060997;28;20022;-71
2024/02/19 02:50:39;;;;;;;2.17;1.40;;;9.90;99.90;;;;;;2060183;28;20049;-72
2024/02/19 02:51:39;;;;;;;1.15;1.15;;;9.90;99.90;;;;;;2061992;28;20026;-71
2024/02/19 02:52:40;;;;;;;1.35;1.25;;;9.90;99.90;;;;;;2061033;28;20034;-71
2024/02/19 02:53:41;;;;;;;1.52;1.20;;;9.90;99.90;;;;;;2061397;28;20026;-71
2024/02/19 02:54:41;;;;;;;1.30;1.20;;;9.90;99.90;;;;;;2061146;28;20120;-70
2024/02/19 02:55:42;;;;;;;1.65;1.30;;;9.90;99.90;;;;;;2059970;28;20073;-71
2024/02/19 02:56:42;;;;;;;1.77;1.17;;;9.90;99.90;;;;;;2047855;28;20041;-71
2024/02/19 02:57:43;;;;;;;1.10;1.10;;;9.90;99.90;;;;;;2052236;28;20022;-70
2024/02/19 02:58:45;;;;;;;2.33;1.20;;;9.90;99.90;;;;;;2052579;28;20413;-71
2024/02/19 02:59:45;;;;;;;1.52;1.20;;;9.90;99.90;;;;;;2057320;28;20121;-71
2024/02/19 03:00:46;;;;;;;1.95;1.20;;;9.90;99.90;;;;;;2061854;28;20132;-70
2024/02/19 03:01:47;;;;;;;3.05;1.27;;;9.90;99.90;;;;;;2058195;28;20493;-73
2024/02/19 03:02:48;;;;;;;1.10;1.00;;;9.90;99.90;;;;;;2060774;28;20088;-71
2024/02/19 03:03:49;;;;;;;1.52;1.30;;;9.90;99.90;;;;;;2061898;28;20053;-72
2024/02/19 03:04:49;;;;;;;1.92;1.38;;;9.90;99.90;;;;;;2057143;28;20096;-72
2024/02/19 03:05:50;;;;;;;1.23;1.10;;;9.90;99.90;;;;;;2052488;28;20575;-71
2024/02/19 03:06:50;;;;;;;1.45;1.35;;;9.80;99.90;;;;;;2060555;28;20699;-71
2024/02/19 03:07:51;;;;;;;1.45;1.30;;;9.90;99.90;;;;;;2059384;28;20038;-72
2024/02/19 03:08:51;;;;;;;1.02;1.02;;;9.90;99.90;;;;;;2060892;28;20026;-71
2024/02/19 03:09:53;;;;;;;2.20;1.30;;;9.80;99.90;;;;;;2061493;28;20497;-73
2024/02/19 03:10:53;;;;;;;1.50;1.23;;;9.80;99.90;;;;;;2057720;28;20480;-71
2024/02/19 03:11:54;;;;;;;1.38;1.15;;;9.80;99.90;;;;;;2060756;28;20018;-69
2024/02/19 03:12:54;;;;;;;1.33;1.23;;;9.80;99.90;;;;;;2060517;28;20062;-71
2024/02/19 03:13:55;;;;;;;1.42;1.30;;;9.80;99.90;;;;;;2060373;28;20019;-72
2024/02/19 03:14:55;;;;;;;1.40;1.30;;;9.80;99.90;;;;;;2061212;28;20629;-71
2024/02/19 03:15:56;;;;;;;1.30;1.20;;;9.80;99.90;;;;;;2060852;28;20073;-72
2024/02/19 03:16:56;;;;;;;1.30;1.20;;;9.80;99.90;;;;;;2062042;28;20022;-71
2024/02/19 03:17:57;;;;;;;1.27;1.15;;;9.80;99.90;;;;;;2060235;28;20117;-72
2024/02/19 03:18:59;;;;;;;1.98;1.10;;;9.80;99.90;;;;;;2057412;28;20026;-71
2024/02/19 03:20:00;;;;;;;1.10;1.10;;;9.80;99.90;;;;;;2061025;28;20443;-71
2024/02/19 03:21:01;;;;;;;1.50;1.40;;;9.80;99.90;;;;;;2061032;28;20040;-72
2024/02/19 03:22:04;;;;;;;1.55;1.45;;;9.80;99.90;;;;;;2060727;28;20037;-71
2024/02/19 03:23:06;;;;;;;1.85;1.30;;;9.80;99.90;;;;;;2060046;28;20085;-71
2024/02/19 03:24:07;;;;;;;1.40;1.30;;;9.80;99.90;;;;;;2061591;28;20337;-72
2024/02/19 03:25:08;;;;;;;1.85;1.40;;;9.80;99.90;;;;;;2060929;28;20186;-71
2024/02/19 03:26:08;;;;;;;3.08;1.30;;;9.70;99.90;;;;;;2061644;28;20698;-71
2024/02/19 03:27:09;;;;;;;1.30;1.20;;;9.80;99.90;;;;;;2058409;28;20022;-72
2024/02/19 03:28:09;;;;;;;3.20;1.40;;;9.80;99.90;;;;;;2060182;28;20042;-71
2024/02/19 03:29:12;;;;;;;1.33;1.20;;;9.80;99.90;;;;;;2060540;28;20030;-71
2024/02/19 03:30:13;;;;;;;1.63;1.27;;;9.80;99.90;;;;;;2055789;28;20038;-71
2024/02/19 03:31:13;;;;;;;1.10;1.10;;;9.80;99.90;;;;;;2051326;28;20038;-70
2024/02/19 03:32:14;;;;;;;2.35;1.30;;;9.80;99.90;;;;;;2059791;28;20038;-71
2024/02/19 03:33:15;;;;;;;1.60;1.20;;;9.80;99.90;;;;;;2056068;28;20034;-71
2024/02/19 03:34:15;;;;;;;1.75;1.10;;;9.80;99.90;;;;;;2058615;28;20030;-71
2024/02/19 03:35:16;;;;;;;1.08;1.08;;;9.80;99.90;;;;;;2056429;28;20058;-71
2024/02/19 03:36:17;;;;;;;1.55;1.10;;;9.70;99.90;;;;;;2061791;28;20057;-71
2024/02/19 03:37:18;;;;;;;1.98;1.10;;;9.80;99.90;;;;;;2061365;28;20096;-71
2024/02/19 03:38:18;;;;;;;1.08;1.08;;;9.80;99.90;;;;;;2056310;28;20439;-71
2024/02/19 03:39:19;;;;;;;1.30;1.20;;;9.80;99.90;;;;;;2054338;28;20058;-71
2024/02/19 03:40:20;;;;;;;1.08;1.08;;;9.70;99.90;;;;;;2061490;28;20030;-71
2024/02/19 03:41:21;;;;;;;1.42;1.10;;;9.70;99.90;;;;;;2062493;28;20413;-71
2024/02/19 03:42:21;;;;;;;1.38;1.13;;;9.70;99.90;;;;;;2059241;28;20023;-71
2024/02/19 03:43:22;;;;;;;1.30;1.20;;;9.70;99.90;;;;;;2055388;28;20096;-71
2024/02/19 03:44:22;;;;;;;2.15;1.10;;;9.70;99.90;;;;;;2056213;28;20050;-71
2024/02/19 03:45:23;;;;;;;1.08;1.00;;;9.70;99.90;;;;;;2057050;28;20030;-70
2024/02/19 03:46:25;;;;;;;2.75;1.10;;;9.70;99.90;;;;;;2056679;28;20026;-71
2024/02/19 03:47:26;;;;;;;1.20;1.00;;;9.70;99.90;;;;;;2060733;28;20034;-70
2024/02/19 03:48:27;;;;;;;1.10;0.98;;;9.70;99.90;;;;;;2056143;28;20446;-70
2024/02/19 03:49:27;;;;;;;2.50;1.20;;;9.70;99.90;;;;;;2053176;28;20397;-70
2024/02/19 03:50:28;;;;;;;1.25;1.00;;;9.70;99.90;;;;;;2061241;28;20473;-71
2024/02/19 03:51:28;;;;;;;2.65;1.00;;;9.80;99.90;;;;;;2060639;28;20592;-71
2024/02/19 03:52:29;;;;;;;1.00;1.00;;;9.70;99.90;;;;;;2061501;28;20098;-71
2024/02/19 03:53:29;;;;;;;1.77;1.10;;;9.70;99.90;;;;;;2056788;28;20069;-72
2024/02/19 03:54:30;;;;;;;1.45;1.00;;;9.70;99.90;;;;;;2061335;28;20516;-71
2024/02/19 03:55:31;;;;;;;1.30;1.05;;;9.70;99.90;;;;;;2060501;28;20113;-71
2024/02/19 03:56:31;;;;;;;1.10;1.00;;;9.70;99.90;;;;;;2060547;28;20073;-71
2024/02/19 03:57:32;;;;;;;1.10;1.10;;;9.60;99.90;;;;;;2060728;28;20675;-71
2024/02/19 03:58:35;;;;;;;3.40;1.17;;;9.60;99.90;;;;;;2055892;28;20023;-71
2024/02/19 03:59:35;;;;;;;1.13;1.02;;;9.60;99.90;;;;;;2061469;28;20034;-72
2024/02/19 04:00:36;;;;;;;1.92;1.00;;;9.60;99.90;;;;;;2059633;28;20060;-71
2024/02/19 04:01:37;;;;;;;0.95;0.95;;;9.60;99.90;;;;;;2060819;28;20088;-71
2024/02/19 04:02:39;;;;;;;1.35;1.00;;;9.60;99.90;;;;;;2061170;28;20026;-71
2024/02/19 04:03:40;;;;;;;2.30;1.10;;;9.60;99.90;;;;;;2055580;28;20038;-71
2024/02/19 04:04:40;;;;;;;2.38;1.10;;;9.60;99.90;;;;;;2060736;28;20451;-71
2024/02/19 04:05:41;;;;;;;1.08;1.00;;;9.60;99.90;;;;;;2060716;28;20063;-71
2024/02/19 04:06:42;;;;;;;1.30;1.20;;;9.60;99.90;;;;;;2059593;28;20064;-71
2024/02/19 04:07:42;;;;;;;1.10;1.00;;;9.60;99.90;;;;;;2060905;28;20447;-71
2024/02/19 04:08:43;;;;;;;2.25;1.00;;;9.60;99.90;;;;;;2059622;28;20026;-71
2024/02/19 04:09:43;;;;;;;1.35;1.08;;;9.60;99.90;;;;;;2059306;28;20038;-71
2024/02/19 04:10:44;;;;;;;1.08;1.00;;;9.60;99.90;;;;;;2055184;28;20022;-71
2024/02/19 04:11:45;;;;;;;1.10;1.00;;;9.60;99.90;;;;;;2057635;28;20098;-71
2024/02/19 04:12:45;;;;;;;1.00;0.90;;;9.60;99.90;;;;;;2059974;28;20485;-72
2024/02/19 04:13:46;;;;;;;1.17;0.90;;;9.60;99.90;;;;;;2058942;28;20041;-72
2024/02/19 04:14:46;;;;;;;1.10;1.00;;;9.50;99.90;;;;;;2060036;28;20085;-72
2024/02/19 04:15:47;;;;;;;1.00;0.90;;;9.50;99.90;;;;;;2060162;28;20038;-72
2024/02/19 04:16:47;;;;;;;1.02;0.90;;;9.40;99.90;;;;;;2057817;28;20534;-72
2024/02/19 04:17:49;;;;;;;1.10;1.00;;;9.40;99.90;;;;;;2056308;28;20036;-71
2024/02/19 04:18:50;;;;;;;1.30;1.20;;;9.40;99.90;;;;;;2059850;28;20023;-72
2024/02/19 04:19:53;;;;;;;0.90;0.90;;;9.40;99.90;;;;;;2058964;28;20038;-72
2024/02/19 04:20:55;;;;;;;1.65;1.08;;;9.30;99.90;;;;;;2060316;28;20026;-72
2024/02/19 04:21:56;;;;;;;1.70;0.90;;;9.30;99.90;;;;;;2060545;28;20058;-71
2024/02/19 04:22:56;;;;;;;1.30;1.10;;;9.20;99.90;;;;;;2061499;28;20380;-72
2024/02/19 04:23:57;;;;;;;1.67;1.10;;;9.20;99.90;;;;;;2059473;28;20030;-72
2024/02/19 04:24:57;;;;;;;1.05;1.00;;;9.10;99.90;;;;;;2060469;28;20108;-72
2024/02/19 04:25:58;;;;;;;1.00;1.00;;;9.10;99.90;;;;;;2060284;28;20499;-71
2024/02/19 04:26:58;;;;;;;1.13;1.05;;;9.10;99.90;;;;;;2056687;28;20105;-71
2024/02/19 04:27:59;;;;;;;1.02;0.93;;;9.10;99.90;;;;;;2057272;28;20030;-71
2024/02/19 04:28:59;;;;;;;1.15;1.00;;;9.10;99.90;;;;;;2059670;28;20034;-71
2024/02/19 04:30:00;;;;;;;1.13;1.00;;;9.10;99.90;;;;;;2056111;28;20030;-72
2024/02/19 04:31:01;;;;;;;1.20;1.10;;;9.10;99.90;;;;;;2056708;28;20061;-71
2024/02/19 04:32:01;;;;;;;1.15;1.02;;;9.10;99.90;;;;;;2059948;28;20028;-71
2024/02/19 04:33:02;;;;;;;1.15;1.00;;;9.10;99.90;;;;;;2059487;28;20029;-72
2024/02/19 04:34:05;;;;;;;1.75;1.00;;;9.10;99.90;;;;;;2060477;28;20045;-72
2024/02/19 04:35:06;;;;;;;1.08;1.00;;;9.10;99.90;;;;;;2060547;28;20022;-71
2024/02/19 04:36:07;;;;;;;1.10;1.05;;;9.10;99.90;;;;;;2062246;28;20026;-71
2024/02/19 04:37:08;;;;;;;1.20;1.00;;;9.10;99.90;;;;;;2059470;28;20129;-71
2024/02/19 04:38:08;;;;;;;1.08;1.08;;;9.00;99.90;;;;;;2059670;28;20486;-71
2024/02/19 04:39:10;;;;;;;1.77;0.90;;;9.00;99.90;;;;;;2052474;28;20039;-70
2024/02/19 04:40:12;;;;;;;1.00;1.00;;;9.00;99.90;;;;;;2059562;28;20034;-71
2024/02/19 04:41:14;;;;;;;2.75;1.10;;;9.00;99.90;;;;;;2061336;28;20037;-71
2024/02/19 04:42:15;;;;;;;1.75;1.00;;;9.00;99.90;;;;;;2060406;28;20038;-71
2024/02/19 04:43:15;;;;;;;1.00;1.00;;;9.00;99.90;;;;;;2056293;28;20057;-71
2024/02/19 04:44:16;;;;;;;0.90;0.90;;;9.00;99.90;;;;;;2057252;28;20560;-70
2024/02/19 04:45:17;;;;;;;1.20;1.10;;;9.00;99.90;;;;;;2059642;28;20500;-70
2024/02/19 04:46:17;;;;;;;1.10;1.00;;;9.00;99.90;;;;;;2054315;28;20049;-70
2024/02/19 04:47:18;;;;;;;1.33;1.10;;;8.90;99.90;;;;;;2059154;28;20381;-71
2024/02/19 04:48:18;;;;;;;1.45;1.00;;;8.90;99.90;;;;;;2057126;28;20113;-71
2024/02/19 04:49:19;;;;;;;1.67;1.20;;;8.90;99.90;;;;;;2059647;28;20105;-70
2024/02/19 04:50:19;;;;;;;1.50;1.40;;;8.90;99.90;;;;;;2058056;28;20041;-71
2024/02/19 04:51:20;;;;;;;1.33;1.23;;;8.90;99.90;;;;;;2060378;28;20227;-71
2024/02/19 04:52:20;;;;;;;1.48;1.15;;;8.90;99.90;;;;;;2061191;28;20113;-70
2024/02/19 04:53:21;;;;;;;1.38;1.23;;;8.90;99.90;;;;;;2059695;28;20629;-70
2024/02/19 04:54:21;;;;;;;1.35;1.25;;;8.90;99.90;;;;;;2061133;28;20050;-70
2024/02/19 04:55:22;;;;;;;1.88;1.25;;;8.90;99.90;;;;;;2056303;28;20085;-70
2024/02/19 04:56:22;;;;;;;1.42;1.15;;;8.80;99.90;;;;;;2059851;28;20121;-70
2024/02/19 04:57:23;;;;;;;1.30;1.20;;;8.80;99.90;;;;;;2058882;28;20492;-71
2024/02/19 04:58:24;;;;;;;1.60;1.27;;;8.90;99.90;;;;;;2057283;28;20038;-70
2024/02/19 04:59:24;;;;;;;1.23;1.20;;;8.80;99.90;;;;;;2057479;28;20097;-70
2024/02/19 05:00:26;;;;;;;1.27;1.10;;;8.80;99.90;;;;;;2058378;28;20045;-70
2024/02/19 05:01:30;;;;;;;1.35;1.25;;;8.80;99.90;;;;;;2058207;28;20194;-72
2024/02/19 05:02:31;;;;;;;3.22;1.30;;;8.80;99.90;;;;;;2057885;28;20050;-73
2024/02/19 05:03:32;;;;;;;1.38;1.27;;;8.80;99.90;;;;;;2062522;28;20519;-72
2024/02/19 05:04:32;;;;;;;1.85;1.20;;;8.80;99.90;;;;;;2058301;28;20508;-72
2024/02/19 05:05:33;;;;;;;1.83;1.10;;;8.80;99.90;;;;;;2055419;28;20643;-71
2024/02/19 05:06:34;;;;;;;1.27;1.17;;;8.80;99.90;;;;;;2058001;28;20045;-70
2024/02/19 05:07:35;;;;;;;1.25;1.10;;;8.80;99.90;;;;;;2058835;28;20196;-71
2024/02/19 05:08:35;;;;;;;1.42;1.33;;;8.80;99.90;;;;;;2060503;28;20432;-71
2024/02/19 05:09:36;;;;;;;1.42;1.25;;;8.70;99.90;;;;;;2059843;28;20117;-70
2024/02/19 05:10:36;;;;;;;1.27;1.10;;;8.70;99.90;;;;;;2060536;28;20042;-72
2024/02/19 05:11:37;;;;;;;1.60;1.15;;;8.70;99.90;;;;;;2060569;28;20030;-71
2024/02/19 05:12:38;;;;;;;1.30;1.20;;;8.70;99.90;;;;;;2060435;28;20061;-71
2024/02/19 05:13:38;;;;;;;1.58;1.17;;;8.70;99.90;;;;;;2061585;28;20026;-72
2024/02/19 05:14:39;;;;;;;1.33;1.23;;;8.60;99.90;;;;;;2061427;28;20041;-71
2024/02/19 05:15:40;;;;;;;1.20;1.10;;;8.60;99.90;;;;;;2062365;28;20026;-72
2024/02/19 05:16:40;;;;;;;2.38;1.30;;;8.60;99.90;;;;;;2058335;28;20584;-71
2024/02/19 05:17:41;;;;;;;1.88;1.20;;;8.60;99.90;;;;;;2060354;28;20056;-71
2024/02/19 05:18:41;;;;;;;1.95;1.20;;;8.60;99.90;;;;;;2057618;28;20022;-70
2024/02/19 05:19:43;;;;;;;1.08;0.95;;;8.60;99.90;;;;;;2057015;28;20164;-71
2024/02/19 05:20:44;;;;;;;0.90;0.90;;;8.60;99.90;;;;;;2061931;28;20321;-71